sensor_id;sensor_type;location;lat;lon;timestamp;pressure;altitude;pressure_sealevel;temperature;humidity
18900;BME280;9582;52.018;6.306;2022-10-16T00:01:16;100882.97;;;12.72;100.00
18900;BME280;9582;52.018;6.306;2022-10-16T00:03:44;100887.53;;;12.69;100.00
18900;BME280;9582;52.018;6.306;2022-10-16T00:06:14;100885.06;;;12.66;100.00
18900;BME280;9582;52.018;6.306;2022-10-16T00:08:42;100886.06;;;12.63;100.00
18900;BME280;9582;52.018;6.306;2022-10-16T00:11:11;100887.16;;;12.59;100.00
18900;BME280;9582;52.018;6.306;2022-10-16T00:13:41;100886.22;;;12.60;100.00
18900;BME280;9582;52.018;6.306;2022-10-16T00:16:13;100890.63;;;12.60;100.00
18900;BME280;9582;52.018;6.306;2022-10-16T00:18:41;100892.38;;;12.59;100.00
18900;BME280;9582;52.018;6.306;2022-10-16T00:21:09;100891.72;;;12.56;100.00
18900;BME280;9582;52.018;6.306;2022-10-16T00:23:36;100901.38;;;12.55;100.00
18900;BME280;9582;52.018;6.306;2022-10-16T00:26:06;100890.88;;;12.55;100.00
18900;BME280;9582;52.018;6.306;2022-10-16T00:28:35;100892.53;;;12.56;100.00
18900;BME280;9582;52.018;6.306;2022-10-16T00:31:03;100890.88;;;12.55;100.00
18900;BME280;9582;52.018;6.306;2022-10-16T00:33:30;100888.75;;;12.62;100.00
18900;BME280;9582;52.018;6.306;2022-10-16T00:35:57;100885.63;;;12.55;100.00
18900;BME280;9582;52.018;6.306;2022-10-16T00:38:24;100890.88;;;12.55;100.00
18900;BME280;9582;52.018;6.306;2022-10-16T00:40:51;100881.13;;;12.57;100.00
18900;BME280;9582;52.018;6.306;2022-10-16T00:43:36;100885.47;;;12.58;100.00
18900;BME280;9582;52.018;6.306;2022-10-16T00:46:12;100885.31;;;12.61;100.00
18900;BME280;9582;52.018;6.306;2022-10-16T00:48:40;100884.47;;;12.61;100.00
18900;BME280;9582;52.018;6.306;2022-10-16T00:51:08;100882.69;;;12.61;100.00
18900;BME280;9582;52.018;6.306;2022-10-16T00:53:36;100885.38;;;12.60;100.00
18900;BME280;9582;52.018;6.306;2022-10-16T00:56:03;100886.28;;;12.59;100.00
18900;BME280;9582;52.018;6.306;2022-10-16T00:58:30;100885.47;;;12.58;100.00
18900;BME280;9582;52.018;6.306;2022-10-16T01:00:59;100884.53;;;12.59;100.00
18900;BME280;9582;52.018;6.306;2022-10-16T01:03:28;100885.47;;;12.58;100.00
18900;BME280;9582;52.018;6.306;2022-10-16T01:06:05;100886.28;;;12.59;100.00
18900;BME280;9582;52.018;6.306;2022-10-16T01:08:42;100886.28;;;12.59;100.00
18900;BME280;9582;52.018;6.306;2022-10-16T01:11:17;100886.22;;;12.60;100.00
18900;BME280;9582;52.018;6.306;2022-10-16T01:13:53;100893.25;;;12.60;100.00
18900;BME280;9582;52.018;6.306;2022-10-16T01:16:33;100888.00;;;12.60;100.00
18900;BME280;9582;52.018;6.306;2022-10-16T01:19:07;100886.13;;;12.62;100.00
18900;BME280;9582;52.018;6.306;2022-10-16T01:21:39;100887.31;;;12.56;100.00
18900;BME280;9582;52.018;6.306;2022-10-16T01:24:17;100901.97;;;12.60;100.00
18900;BME280;9582;52.018;6.306;2022-10-16T01:27:06;100898.72;;;12.72;100.00
18900;BME280;9582;52.018;6.306;2022-10-16T01:29:36;100894.78;;;12.64;100.00
18900;BME280;9582;52.018;6.306;2022-10-16T01:32:10;100887.75;;;12.64;100.00
18900;BME280;9582;52.018;6.306;2022-10-16T01:34:47;100883.50;;;12.62;100.00
18900;BME280;9582;52.018;6.306;2022-10-16T01:37:17;100884.47;;;12.61;100.00
18900;BME280;9582;52.018;6.306;2022-10-16T01:39:46;100884.31;;;12.64;100.00
18900;BME280;9582;52.018;6.306;2022-10-16T01:42:19;100883.59;;;12.60;100.00
18900;BME280;9582;52.018;6.306;2022-10-16T01:44:48;100887.94;;;12.61;100.00
18900;BME280;9582;52.018;6.306;2022-10-16T01:47:17;100878.97;;;12.65;100.00
18900;BME280;9582;52.018;6.306;2022-10-16T01:49:45;100876.81;;;12.56;100.00
18900;BME280;9582;52.018;6.306;2022-10-16T01:52:19;100872.50;;;12.55;100.00
18900;BME280;9582;52.018;6.306;2022-10-16T01:54:51;100873.25;;;12.57;100.00
18900;BME280;9582;52.018;6.306;2022-10-16T01:57:24;100875.72;;;12.60;100.00
18900;BME280;9582;52.018;6.306;2022-10-16T01:59:54;100883.44;;;12.63;100.00
18900;BME280;9582;52.018;6.306;2022-10-16T02:02:22;100885.13;;;12.64;100.00
18900;BME280;9582;52.018;6.306;2022-10-16T02:04:55;100891.84;;;12.70;100.00
18900;BME280;9582;52.018;6.306;2022-10-16T02:07:29;100895.41;;;12.69;100.00
18900;BME280;9582;52.018;6.306;2022-10-16T02:09:56;100891.44;;;12.78;100.00
18900;BME280;9582;52.018;6.306;2022-10-16T02:12:26;100897.81;;;12.89;100.00
18900;BME280;9582;52.018;6.306;2022-10-16T02:14:54;100890.81;;;12.90;100.00
18900;BME280;9582;52.018;6.306;2022-10-16T02:17:21;100892.47;;;12.91;100.00
18900;BME280;9582;52.018;6.306;2022-10-16T02:19:49;100890.91;;;13.04;100.00
18900;BME280;9582;52.018;6.306;2022-10-16T02:22:22;100897.16;;;13.01;100.00
18900;BME280;9582;52.018;6.306;2022-10-16T02:24:54;100894.53;;;13.01;100.00
18900;BME280;9582;52.018;6.306;2022-10-16T02:27:29;100907.91;;;12.97;100.00
18900;BME280;9582;52.018;6.306;2022-10-16T02:30:03;100905.88;;;13.02;100.00
18900;BME280;9582;52.018;6.306;2022-10-16T02:32:34;100903.09;;;13.05;100.00
18900;BME280;9582;52.018;6.306;2022-10-16T02:35:04;100911.91;;;13.04;100.00
18900;BME280;9582;52.018;6.306;2022-10-16T02:37:32;100915.38;;;13.04;100.00
18900;BME280;9582;52.018;6.306;2022-10-16T02:39:59;100911.72;;;13.07;100.00
18900;BME280;9582;52.018;6.306;2022-10-16T02:42:33;100908.91;;;13.11;100.00
18900;BME280;9582;52.018;6.306;2022-10-16T02:44:59;100900.00;;;13.14;100.00
18900;BME280;9582;52.018;6.306;2022-10-16T02:47:26;100904.25;;;13.16;100.00
18900;BME280;9582;52.018;6.306;2022-10-16T02:49:53;100899.00;;;13.16;100.00
18900;BME280;9582;52.018;6.306;2022-10-16T02:52:19;100896.47;;;13.30;100.00
18900;BME280;9582;52.018;6.306;2022-10-16T02:54:46;100893.25;;;13.25;100.00
18900;BME280;9582;52.018;6.306;2022-10-16T02:57:12;100889.94;;;13.22;100.00
18900;BME280;9582;52.018;6.306;2022-10-16T02:59:40;100895.63;;;13.30;100.00
18900;BME280;9582;52.018;6.306;2022-10-16T03:02:07;100888.53;;;13.32;100.00
18900;BME280;9582;52.018;6.306;2022-10-16T03:04:34;100882.47;;;13.30;100.00
18900;BME280;9582;52.018;6.306;2022-10-16T03:07:00;100899.34;;;13.26;100.00
18900;BME280;9582;52.018;6.306;2022-10-16T03:09:27;100899.69;;;13.20;100.00
18900;BME280;9582;52.018;6.306;2022-10-16T03:11:53;100891.28;;;13.13;100.00
18900;BME280;9582;52.018;6.306;2022-10-16T03:14:20;100890.47;;;13.28;100.00
18900;BME280;9582;52.018;6.306;2022-10-16T03:16:48;100893.25;;;13.25;100.00
18900;BME280;9582;52.018;6.306;2022-10-16T03:19:16;100895.31;;;13.03;100.00
18900;BME280;9582;52.018;6.306;2022-10-16T03:21:42;100893.69;;;13.18;100.00
18900;BME280;9582;52.018;6.306;2022-10-16T03:24:09;100899.00;;;13.16;100.00
18900;BME280;9582;52.018;6.306;2022-10-16T03:26:36;100910.50;;;13.14;100.00
18900;BME280;9582;52.018;6.306;2022-10-16T03:29:03;100899.63;;;13.04;100.00
18900;BME280;9582;52.018;6.306;2022-10-16T03:31:32;100904.97;;;13.03;100.00
18900;BME280;9582;52.018;6.306;2022-10-16T03:34:00;100922.56;;;13.01;100.00
18900;BME280;9582;52.018;6.306;2022-10-16T03:36:26;100931.28;;;13.01;100.00
18900;BME280;9582;52.018;6.306;2022-10-16T03:38:53;100922.47;;;13.02;100.00
18900;BME280;9582;52.018;6.306;2022-10-16T03:41:20;100921.88;;;12.97;100.00
18900;BME280;9582;52.018;6.306;2022-10-16T03:43:47;100925.53;;;12.95;100.00
18900;BME280;9582;52.018;6.306;2022-10-16T03:46:13;100924.97;;;12.88;100.00
18900;BME280;9582;52.018;6.306;2022-10-16T03:48:40;100925.47;;;12.79;100.00
18900;BME280;9582;52.018;6.306;2022-10-16T03:51:08;100922.06;;;12.77;100.00
18900;BME280;9582;52.018;6.306;2022-10-16T03:53:34;100930.88;;;12.76;100.00
18900;BME280;9582;52.018;6.306;2022-10-16T03:56:01;100935.19;;;12.77;100.00
18900;BME280;9582;52.018;6.306;2022-10-16T03:58:28;100931.03;;;12.73;100.00
18900;BME280;9582;52.018;6.306;2022-10-16T04:00:55;100926.56;;;12.75;100.00
18900;BME280;9582;52.018;6.306;2022-10-16T04:03:21;100930.03;;;12.76;100.00
18900;BME280;9582;52.018;6.306;2022-10-16T04:05:48;100930.81;;;12.78;100.00
18900;BME280;9582;52.018;6.306;2022-10-16T04:08:16;100925.63;;;12.76;100.00
18900;BME280;9582;52.018;6.306;2022-10-16T04:10:43;100929.09;;;12.77;100.00
18900;BME280;9582;52.018;6.306;2022-10-16T04:13:10;100930.88;;;12.76;100.00
18900;BME280;9582;52.018;6.306;2022-10-16T04:15:37;100942.31;;;12.75;100.00
18900;BME280;9582;52.018;6.306;2022-10-16T04:18:03;100943.06;;;12.77;100.00
18900;BME280;9582;52.018;6.306;2022-10-16T04:20:30;100944.47;;;12.84;100.00
18900;BME280;9582;52.018;6.306;2022-10-16T04:22:57;100950.38;;;12.88;100.00
18900;BME280;9582;52.018;6.306;2022-10-16T04:25:25;100949.47;;;12.89;100.00
18900;BME280;9582;52.018;6.306;2022-10-16T04:27:52;100959.03;;;12.90;100.00
18900;BME280;9582;52.018;6.306;2022-10-16T04:30:19;100967.72;;;12.90;100.00
18900;BME280;9582;52.018;6.306;2022-10-16T04:32:47;100971.38;;;12.88;100.00
18900;BME280;9582;52.018;6.306;2022-10-16T04:35:14;100970.44;;;12.89;100.00
18900;BME280;9582;52.018;6.306;2022-10-16T04:37:41;100968.75;;;12.88;100.00
18900;BME280;9582;52.018;6.306;2022-10-16T04:40:08;100970.31;;;12.92;100.00
18900;BME280;9582;52.018;6.306;2022-10-16T04:42:36;100977.47;;;12.88;100.00
18900;BME280;9582;52.018;6.306;2022-10-16T04:45:03;100979.94;;;12.91;100.00
18900;BME280;9582;52.018;6.306;2022-10-16T04:47:30;100981.41;;;12.97;100.00
18900;BME280;9582;52.018;6.306;2022-10-16T04:49:56;100983.16;;;12.96;100.00
18900;BME280;9582;52.018;6.306;2022-10-16T04:52:25;100981.56;;;12.94;100.00
18900;BME280;9582;52.018;6.306;2022-10-16T04:54:51;100987.56;;;12.96;100.00
18900;BME280;9582;52.018;6.306;2022-10-16T04:57:19;100986.09;;;12.90;100.00
18900;BME280;9582;52.018;6.306;2022-10-16T04:59:47;100992.38;;;12.88;100.00
18900;BME280;9582;52.018;6.306;2022-10-16T05:02:13;100998.41;;;12.90;100.00
18900;BME280;9582;52.018;6.306;2022-10-16T05:04:40;100989.75;;;12.88;100.00
18900;BME280;9582;52.018;6.306;2022-10-16T05:07:06;100999.31;;;12.89;100.00
18900;BME280;9582;52.018;6.306;2022-10-16T05:09:33;101001.09;;;12.88;100.00
18900;BME280;9582;52.018;6.306;2022-10-16T05:11:59;101009.06;;;12.87;100.00
18900;BME280;9582;52.018;6.306;2022-10-16T05:14:26;101003.72;;;12.88;100.00
18900;BME280;9582;52.018;6.306;2022-10-16T05:16:54;101011.53;;;12.90;100.00
18900;BME280;9582;52.018;6.306;2022-10-16T05:19:20;101015.84;;;12.91;100.00
18900;BME280;9582;52.018;6.306;2022-10-16T05:21:48;101020.31;;;12.89;100.00
18900;BME280;9582;52.018;6.306;2022-10-16T05:24:14;101017.84;;;12.86;100.00
18900;BME280;9582;52.018;6.306;2022-10-16T05:26:41;101018.91;;;12.82;100.00
18900;BME280;9582;52.018;6.306;2022-10-16T05:29:08;101018.09;;;12.81;100.00
18900;BME280;9582;52.018;6.306;2022-10-16T05:31:35;101028.03;;;12.74;100.00
18900;BME280;9582;52.018;6.306;2022-10-16T05:34:03;101031.44;;;12.77;100.00
18900;BME280;9582;52.018;6.306;2022-10-16T05:36:29;101025.03;;;12.82;100.00
18900;BME280;9582;52.018;6.306;2022-10-16T05:38:56;101033.03;;;12.79;100.00
18900;BME280;9582;52.018;6.306;2022-10-16T05:41:22;101035.59;;;12.81;100.00
18900;BME280;9582;52.018;6.306;2022-10-16T05:43:51;101035.75;;;12.78;100.00
18900;BME280;9582;52.018;6.306;2022-10-16T05:46:17;101039.53;;;12.72;100.00
18900;BME280;9582;52.018;6.306;2022-10-16T05:48:44;101049.34;;;12.68;100.00
18900;BME280;9582;52.018;6.306;2022-10-16T05:51:13;101046.84;;;12.65;100.00
18900;BME280;9582;52.018;6.306;2022-10-16T05:53:41;101058.06;;;12.69;100.00
18900;BME280;9582;52.018;6.306;2022-10-16T05:56:10;101054.66;;;12.67;100.00
18900;BME280;9582;52.018;6.306;2022-10-16T05:58:38;101067.78;;;12.67;100.00
18900;BME280;9582;52.018;6.306;2022-10-16T06:01:07;101068.09;;;12.61;100.00
18900;BME280;9582;52.018;6.306;2022-10-16T06:03:36;101070.09;;;12.56;100.00
18900;BME280;9582;52.018;6.306;2022-10-16T06:06:07;101072.88;;;12.53;100.00
18900;BME280;9582;52.018;6.306;2022-10-16T06:08:36;101086.81;;;12.53;100.00
18900;BME280;9582;52.018;6.306;2022-10-16T06:11:04;101094.75;;;12.52;100.00
18900;BME280;9582;52.018;6.306;2022-10-16T06:13:32;101097.16;;;12.56;100.00
18900;BME280;9582;52.018;6.306;2022-10-16T06:16:00;101103.25;;;12.57;100.00
18900;BME280;9582;52.018;6.306;2022-10-16T06:18:28;101105.81;;;12.58;100.00
18900;BME280;9582;52.018;6.306;2022-10-16T06:20:55;101112.81;;;12.58;100.00
18900;BME280;9582;52.018;6.306;2022-10-16T06:23:23;101123.09;;;12.62;100.00
18900;BME280;9582;52.018;6.306;2022-10-16T06:25:51;101118.97;;;12.76;100.00
18900;BME280;9582;52.018;6.306;2022-10-16T06:28:17;101113.53;;;12.79;100.00
18900;BME280;9582;52.018;6.306;2022-10-16T06:30:44;101122.56;;;12.73;100.00
18900;BME280;9582;52.018;6.306;2022-10-16T06:33:11;101118.88;;;12.77;100.00
18900;BME280;9582;52.018;6.306;2022-10-16T06:35:38;101124.97;;;12.78;100.00
18900;BME280;9582;52.018;6.306;2022-10-16T06:38:05;101132.09;;;12.76;100.00
18900;BME280;9582;52.018;6.306;2022-10-16T06:40:31;101129.47;;;12.76;100.00
18900;BME280;9582;52.018;6.306;2022-10-16T06:42:59;101128.47;;;12.78;100.00
18900;BME280;9582;52.018;6.306;2022-10-16T06:45:26;101120.34;;;12.83;100.00
18900;BME280;9582;52.018;6.306;2022-10-16T06:47:52;101128.53;;;12.94;100.00
18900;BME280;9582;52.018;6.306;2022-10-16T06:50:19;101126.22;;;13.05;100.00
18900;BME280;9582;52.018;6.306;2022-10-16T06:52:45;101136.31;;;13.14;100.00
18900;BME280;9582;52.018;6.306;2022-10-16T06:55:12;101138.69;;;13.36;100.00
18900;BME280;9582;52.018;6.306;2022-10-16T06:57:39;101154.75;;;13.47;100.00
18900;BME280;9582;52.018;6.306;2022-10-16T07:00:08;101152.50;;;13.56;100.00
18900;BME280;9582;52.018;6.306;2022-10-16T07:02:35;101149.88;;;13.56;100.00
18900;BME280;9582;52.018;6.306;2022-10-16T07:05:02;101159.81;;;13.67;100.00
18900;BME280;9582;52.018;6.306;2022-10-16T07:07:30;101157.28;;;13.65;100.00
18900;BME280;9582;52.018;6.306;2022-10-16T07:09:56;101164.72;;;13.74;100.00
18900;BME280;9582;52.018;6.306;2022-10-16T07:12:23;101175.16;;;13.92;100.00
18900;BME280;9582;52.018;6.306;2022-10-16T07:14:50;101170.53;;;13.97;100.00
18900;BME280;9582;52.018;6.306;2022-10-16T07:17:21;101176.97;;;14.07;100.00
18900;BME280;9582;52.018;6.306;2022-10-16T07:19:47;101173.44;;;14.23;100.00
18900;BME280;9582;52.018;6.306;2022-10-16T07:22:14;101185.50;;;14.27;100.00
18900;BME280;9582;52.018;6.306;2022-10-16T07:24:41;101189.53;;;14.34;100.00
18900;BME280;9582;52.018;6.306;2022-10-16T07:27:09;101189.63;;;14.49;100.00
18900;BME280;9582;52.018;6.306;2022-10-16T07:29:37;101198.69;;;14.43;100.00
18900;BME280;9582;52.018;6.306;2022-10-16T07:32:04;101199.28;;;14.48;100.00
18900;BME280;9582;52.018;6.306;2022-10-16T07:34:32;101198.97;;;14.54;100.00
18900;BME280;9582;52.018;6.306;2022-10-16T07:37:01;101202.72;;;14.50;100.00
18900;BME280;9582;52.018;6.306;2022-10-16T07:39:28;101214.16;;;14.49;100.00
18900;BME280;9582;52.018;6.306;2022-10-16T07:41:54;101218.16;;;14.56;100.00
18900;BME280;9582;52.018;6.306;2022-10-16T07:44:21;101218.81;;;14.60;100.00
18900;BME280;9582;52.018;6.306;2022-10-16T07:46:51;101228.00;;;14.53;100.00
18900;BME280;9582;52.018;6.306;2022-10-16T07:49:17;101227.31;;;14.49;100.00
18900;BME280;9582;52.018;6.306;2022-10-16T07:51:45;101237.50;;;14.55;100.00
18900;BME280;9582;52.018;6.306;2022-10-16T07:54:13;101231.66;;;14.50;100.00
18900;BME280;9582;52.018;6.306;2022-10-16T07:56:40;101244.66;;;14.53;100.00
18900;BME280;9582;52.018;6.306;2022-10-16T07:59:06;101243.09;;;14.49;100.00
18900;BME280;9582;52.018;6.306;2022-10-16T08:01:38;101248.78;;;14.57;100.00
18900;BME280;9582;52.018;6.306;2022-10-16T08:04:05;101252.47;;;14.70;100.00
18900;BME280;9582;52.018;6.306;2022-10-16T08:06:36;101258.31;;;14.75;100.00
18900;BME280;9582;52.018;6.306;2022-10-16T08:09:05;101259.44;;;14.87;100.00
18900;BME280;9582;52.018;6.306;2022-10-16T08:11:33;101262.50;;;14.95;100.00
18900;BME280;9582;52.018;6.306;2022-10-16T08:14:01;101268.69;;;15.10;100.00
18900;BME280;9582;52.018;6.306;2022-10-16T08:16:27;101282.00;;;15.22;100.00
18900;BME280;9582;52.018;6.306;2022-10-16T08:18:54;101278.41;;;15.39;100.00
18900;BME280;9582;52.018;6.306;2022-10-16T08:21:22;101278.06;;;15.45;100.00
18900;BME280;9582;52.018;6.306;2022-10-16T08:23:49;101274.25;;;15.50;100.00
18900;BME280;9582;52.018;6.306;2022-10-16T08:26:18;101273.63;;;15.45;100.00
18900;BME280;9582;52.018;6.306;2022-10-16T08:28:44;101276.22;;;15.47;100.00
18900;BME280;9582;52.018;6.306;2022-10-16T08:31:12;101279.75;;;15.46;100.00
18900;BME280;9582;52.018;6.306;2022-10-16T08:33:42;101279.63;;;15.49;100.00
18900;BME280;9582;52.018;6.306;2022-10-16T08:36:10;101288.19;;;15.52;100.00
18900;BME280;9582;52.018;6.306;2022-10-16T08:38:38;101290.75;;;15.54;100.00
18900;BME280;9582;52.018;6.306;2022-10-16T08:41:31;101289.31;;;15.48;100.00
18900;BME280;9582;52.018;6.306;2022-10-16T08:44:25;101290.56;;;15.57;100.00
18900;BME280;9582;52.018;6.306;2022-10-16T08:47:06;101296.69;;;15.57;100.00
18900;BME280;9582;52.018;6.306;2022-10-16T08:49:40;101295.38;;;15.65;100.00
18900;BME280;9582;52.018;6.306;2022-10-16T08:52:12;101298.59;;;15.70;100.00
18900;BME280;9582;52.018;6.306;2022-10-16T08:54:42;101305.91;;;15.80;100.00
18900;BME280;9582;52.018;6.306;2022-10-16T08:57:14;101305.22;;;15.77;100.00
18900;BME280;9582;52.018;6.306;2022-10-16T08:59:43;101324.53;;;15.77;100.00
18900;BME280;9582;52.018;6.306;2022-10-16T09:02:23;101318.63;;;15.88;100.00
18900;BME280;9582;52.018;6.306;2022-10-16T09:05:03;101326.94;;;15.96;100.00
18900;BME280;9582;52.018;6.306;2022-10-16T09:07:35;101322.88;;;15.90;100.00
18900;BME280;9582;52.018;6.306;2022-10-16T09:10:21;101321.47;;;15.99;100.00
18900;BME280;9582;52.018;6.306;2022-10-16T09:12:57;101326.56;;;16.02;100.00
18900;BME280;9582;52.018;6.306;2022-10-16T09:15:32;101337.31;;;15.99;100.00
18900;BME280;9582;52.018;6.306;2022-10-16T09:18:07;101340.38;;;16.21;100.00
18900;BME280;9582;52.018;6.306;2022-10-16T09:20:45;101343.50;;;16.28;100.00
18900;BME280;9582;52.018;6.306;2022-10-16T09:23:17;101342.06;;;16.22;100.00
18900;BME280;9582;52.018;6.306;2022-10-16T09:25:46;101349.81;;;16.25;100.00
18900;BME280;9582;52.018;6.306;2022-10-16T09:28:16;101344.78;;;16.21;100.00
18900;BME280;9582;52.018;6.306;2022-10-16T09:30:43;101352.72;;;16.21;100.00
18900;BME280;9582;52.018;6.306;2022-10-16T09:33:12;101358.84;;;16.21;100.00
18900;BME280;9582;52.018;6.306;2022-10-16T09:35:41;101354.41;;;16.22;100.00
18900;BME280;9582;52.018;6.306;2022-10-16T09:38:08;101359.63;;;16.37;100.00
18900;BME280;9582;52.018;6.306;2022-10-16T09:40:46;101363.50;;;16.46;100.00
18900;BME280;9582;52.018;6.306;2022-10-16T09:43:20;101369.38;;;16.51;100.00
18900;BME280;9582;52.018;6.306;2022-10-16T09:45:56;101374.72;;;16.49;100.00
18900;BME280;9582;52.018;6.306;2022-10-16T09:48:25;101368.59;;;16.49;100.00
18900;BME280;9582;52.018;6.306;2022-10-16T09:50:57;101367.88;;;16.61;100.00
18900;BME280;9582;52.018;6.306;2022-10-16T09:53:24;101375.63;;;16.78;100.00
18900;BME280;9582;52.018;6.306;2022-10-16T09:55:53;101383.16;;;16.84;100.00
18900;BME280;9582;52.018;6.306;2022-10-16T09:58:23;101377.97;;;16.83;100.00
18900;BME280;9582;52.018;6.306;2022-10-16T10:00:52;101381.75;;;16.79;100.00
18900;BME280;9582;52.018;6.306;2022-10-16T10:03:43;101383.00;;;16.73;100.00
18900;BME280;9582;52.018;6.306;2022-10-16T10:06:18;101378.34;;;16.77;100.00
18900;BME280;9582;52.018;6.306;2022-10-16T10:08:58;101381.56;;;16.82;100.00
18900;BME280;9582;52.018;6.306;2022-10-16T10:11:39;101384.66;;;16.88;100.00
18900;BME280;9582;52.018;6.306;2022-10-16T10:14:14;101373.47;;;16.85;100.00
18900;BME280;9582;52.018;6.306;2022-10-16T10:16:42;101377.50;;;16.90;100.00
18900;BME280;9582;52.018;6.306;2022-10-16T10:19:13;101384.84;;;16.99;100.00
18900;BME280;9582;52.018;6.306;2022-10-16T10:21:40;101384.47;;;17.05;100.00
18900;BME280;9582;52.018;6.306;2022-10-16T10:24:10;101388.81;;;17.06;100.00
18900;BME280;9582;52.018;6.306;2022-10-16T10:26:38;101391.94;;;17.13;100.00
18900;BME280;9582;52.018;6.306;2022-10-16T10:29:13;101393.22;;;17.20;100.00
18900;BME280;9582;52.018;6.306;2022-10-16T10:31:46;101397.19;;;17.27;100.00
18900;BME280;9582;52.018;6.306;2022-10-16T10:34:38;101387.19;;;17.32;100.00
18900;BME280;9582;52.018;6.306;2022-10-16T10:37:19;101392.50;;;17.45;100.00
18900;BME280;9582;52.018;6.306;2022-10-16T10:39:54;101383.09;;;17.55;100.00
18900;BME280;9582;52.018;6.306;2022-10-16T10:42:29;101390.63;;;17.47;100.00
18900;BME280;9582;52.018;6.306;2022-10-16T10:45:23;101400.78;;;17.53;100.00
18900;BME280;9582;52.018;6.306;2022-10-16T10:48:19;101399.13;;;17.52;100.00
18900;BME280;9582;52.018;6.306;2022-10-16T10:50:49;101401.84;;;17.50;99.96
18900;BME280;9582;52.018;6.306;2022-10-16T10:53:24;101392.03;;;17.52;95.80
18900;BME280;9582;52.018;6.306;2022-10-16T10:55:58;101400.44;;;17.59;97.25
18900;BME280;9582;52.018;6.306;2022-10-16T10:58:40;101396.25;;;17.69;95.23
18900;BME280;9582;52.018;6.306;2022-10-16T11:01:12;101392.19;;;17.77;95.81
18900;BME280;9582;52.018;6.306;2022-10-16T11:03:50;101399.94;;;17.93;97.97
18900;BME280;9582;52.018;6.306;2022-10-16T11:06:28;101404.34;;;17.80;95.35
18900;BME280;9582;52.018;6.306;2022-10-16T11:09:00;101400.44;;;17.59;90.91
18900;BME280;9582;52.018;6.306;2022-10-16T11:11:32;101402.34;;;17.57;87.99
18900;BME280;9582;52.018;6.306;2022-10-16T11:14:05;101397.94;;;17.70;90.39
18900;BME280;9582;52.018;6.306;2022-10-16T11:16:39;101409.03;;;17.89;91.49
18900;BME280;9582;52.018;6.306;2022-10-16T11:19:11;101399.13;;;18.05;95.00
18900;BME280;9582;52.018;6.306;2022-10-16T11:21:47;101409.31;;;18.11;92.65
18900;BME280;9582;52.018;6.306;2022-10-16T11:24:20;101410.06;;;18.13;89.49
18900;BME280;9582;52.018;6.306;2022-10-16T11:26:50;101409.84;;;18.29;89.59
18900;BME280;9582;52.018;6.306;2022-10-16T11:29:22;101422.44;;;18.52;92.20
18900;BME280;9582;52.018;6.306;2022-10-16T11:31:57;101422.94;;;18.57;89.81
18900;BME280;9582;52.018;6.306;2022-10-16T11:34:29;101411.63;;;18.55;88.11
18900;BME280;9582;52.018;6.306;2022-10-16T11:37:03;101426.13;;;18.50;86.80
18900;BME280;9582;52.018;6.306;2022-10-16T11:39:32;101419.22;;;18.47;86.21
18900;BME280;9582;52.018;6.306;2022-10-16T11:42:03;101419.22;;;18.47;85.56
18900;BME280;9582;52.018;6.306;2022-10-16T11:44:48;101418.50;;;18.58;83.08
18900;BME280;9582;52.018;6.306;2022-10-16T11:47:31;101421.19;;;18.70;83.57
18900;BME280;9582;52.018;6.306;2022-10-16T11:50:06;101418.41;;;18.72;81.59
18900;BME280;9582;52.018;6.306;2022-10-16T11:52:42;101415.84;;;18.83;85.19
18900;BME280;9582;52.018;6.306;2022-10-16T11:55:15;101420.84;;;18.87;83.02
18900;BME280;9582;52.018;6.306;2022-10-16T11:57:45;101424.47;;;18.99;84.43
18900;BME280;9582;52.018;6.306;2022-10-16T12:00:20;101427.09;;;18.99;80.25
18900;BME280;9582;52.018;6.306;2022-10-16T12:02:59;101433.22;;;19.12;82.38
18900;BME280;9582;52.018;6.306;2022-10-16T12:05:38;101423.38;;;18.89;76.46
18900;BME280;9582;52.018;6.306;2022-10-16T12:08:14;101428.69;;;18.64;77.16
18900;BME280;9582;52.018;6.306;2022-10-16T12:10:44;101436.25;;;18.43;76.35
18900;BME280;9582;52.018;6.306;2022-10-16T12:13:31;101442.34;;;18.18;75.88
18900;BME280;9582;52.018;6.306;2022-10-16T12:16:06;101450.81;;;18.11;77.57
18900;BME280;9582;52.018;6.306;2022-10-16T12:18:34;101445.00;;;18.18;77.10
18900;BME280;9582;52.018;6.306;2022-10-16T12:21:01;101434.34;;;18.32;75.84
18900;BME280;9582;52.018;6.306;2022-10-16T12:23:32;101444.53;;;18.38;75.90
18900;BME280;9582;52.018;6.306;2022-10-16T12:26:00;101445.66;;;18.49;77.69
18900;BME280;9582;52.018;6.306;2022-10-16T12:28:29;101449.19;;;18.48;77.07
18900;BME280;9582;52.018;6.306;2022-10-16T12:30:58;101449.28;;;18.46;76.14
18900;BME280;9582;52.018;6.306;2022-10-16T12:33:27;101448.22;;;18.63;79.40
18900;BME280;9582;52.018;6.306;2022-10-16T12:35:57;101447.97;;;18.66;75.45
18900;BME280;9582;52.018;6.306;2022-10-16T12:38:27;101441.63;;;18.68;77.08
18900;BME280;9582;52.018;6.306;2022-10-16T12:40:57;101444.78;;;18.61;77.69
18900;BME280;9582;52.018;6.306;2022-10-16T12:43:39;101452.53;;;18.64;77.34
18900;BME280;9582;52.018;6.306;2022-10-16T12:46:23;101455.38;;;18.61;77.04
18900;BME280;9582;52.018;6.306;2022-10-16T12:48:52;101458.34;;;18.56;74.49
18900;BME280;9582;52.018;6.306;2022-10-16T12:51:25;101455.09;;;18.65;74.23
18900;BME280;9582;52.018;6.306;2022-10-16T12:54:00;101451.38;;;18.80;76.97
18900;BME280;9582;52.018;6.306;2022-10-16T12:56:37;101455.09;;;18.90;78.09
18900;BME280;9582;52.018;6.306;2022-10-16T12:59:15;101466.66;;;19.02;78.12
18900;BME280;9582;52.018;6.306;2022-10-16T13:01:58;101460.16;;;19.06;76.34
18900;BME280;9582;52.018;6.306;2022-10-16T13:04:40;101465.38;;;19.08;75.63
18900;BME280;9582;52.018;6.306;2022-10-16T13:07:23;101476.94;;;19.19;76.59
18900;BME280;9582;52.018;6.306;2022-10-16T13:10:01;101470.22;;;19.26;75.91